Weather at Delaware Airpark

Public forecast

Using degrees Fahrenheit for public forecast. Weather courtesy of forecast.io.

Closest aviation weather report (METAR) to Delaware Airpark

Closest report is Dover Air Force Base, 8.1 nm (15.0 km) SE. Retrieved 2020/09/25 03:56 UTC (19 minutes ago):

KDOV 250356Z AUTO 19005KT 10SM CLR 16/16 A3004 RMK AO2 SLP176 T01610156

Closest aviation forecast (TAF) to Delaware Airpark

Closest forecast is Dover Air Force Base, 8.1 nm (15.0 km) SE. Retrieved 2020-09-25 00:15 UTC (4 hours ago):

TAF KDOV 250000Z 2500/2606 23006KT 9999 OVC200 QNH3002INS TEMPO 2509/2512 6000 BR BECMG 2514/2515 23010G15KT 9999 SCT200 QNH3010INS BECMG 2520/2521 18009KT 9999 SCT100 SCT200 QNH3010INS BECMG 2603/2604 VRB06KT 9999 BKN020 QNH3007INS TX25/2520Z TN15/2510Z